Nina — ICMG — position and weather

sailwx.info

Track history (hours):
 
Tides and Currents Weather Stations Pressure Air Temp Water Temp Dewpoint Dewpoint Depression Visibility Wind Speed Wind Dir Waves Ship Positions

Nina

Last reported at 2016-Feb-10 15:31 UTC. Time now 2016-Feb-11 02:23 UTC.
Position N 41°54' W 009°57'.

Length 180 m; draft 9 m.

Type: Ship (hazmat cat A). MMSI: 247239700.

Date/timePositionNaut miles runAvg speedWind from/ knotsBaromVisibWave heightAir tempDewpointWater temp
2016-Feb-10 15:31N 41°54' W 009°57'10 9.9
2016-Feb-10 14:31N 41°44' W 009°56'10 9.4
2016-Feb-10 13:28N 41°34' W 009°57'10 9.7
2016-Feb-10 12:28N 41°24' W 009°56'9 9.1
2016-Feb-10 11:31N 41°16' W 009°56'12 9.4
2016-Feb-10 10:13N 41°03' W 009°56'8 9.0
2016-Feb-10 09:22N 40°56' W 009°56'8 9.5
2016-Feb-10 08:31N 40°48' W 009°57'1010.2
2016-Feb-10 07:31N 40°38' W 009°56'1010.3
2016-Feb-10 06:31N 40°27' W 009°57'1110.1
2016-Feb-10 05:28N 40°17' W 009°57'910.0
2016-Feb-10 04:31N 40°07' W 009°57'1010.0
2016-Feb-10 03:32N 39°57' W 009°56'1211.4
2016-Feb-10 02:31N 39°46' W 009°56'1110.3
2016-Feb-10 01:28N 39°35' W 009°56'9 9.5
2016-Feb-10 00:32N 39°26' W 009°56'1010.2
2016-Feb-09 23:33N 39°16' W 009°57'10 9.8
2016-Feb-09 22:33N 39°06' W 009°56'10 9.7
2016-Feb-09 21:33N 38°57' W 009°56'10 9.8
2016-Feb-09 20:33N 38°47' W 009°57'9 9.3
2016-Feb-09 19:33N 38°38' W 009°55'10 9.7
2016-Feb-09 18:33N 38°28' W 009°52'1010.2
2016-Feb-09 17:33N 38°18' W 009°50'1010.1
2016-Feb-09 16:33N 38°08' W 009°47'1110.3
2016-Feb-09 15:31N 37°58' W 009°44'1010.5
2016-Feb-09 14:33N 37°48' W 009°40'1010.3
2016-Feb-09 13:33N 37°38' W 009°38'1110.6
2016-Feb-09 12:31N 37°27' W 009°34'1010.2
2016-Feb-09 11:31N 37°17' W 009°32'1010.5
2016-Feb-09 10:31N 37°07' W 009°29'1110.3
2016-Feb-09 09:28N 36°57' W 009°26'1010.1
2016-Feb-09 08:31N 36°48' W 009°21'1110.9
2016-Feb-09 07:31N 36°40' W 009°11'1010.4
2016-Feb-09 06:33N 36°37' W 008°59'1212.4
2016-Feb-09 05:34N 36°33' W 008°45'1211.4
2016-Feb-09 04:31N 36°30' W 008°30'1212.1
2016-Feb-09 03:31N 36°26' W 008°16'13611.3
2016-Feb-08 15:33N 35°59' W 005°31'1010.0
2016-Feb-08 14:33N 36°01' W 005°20'21810.8
2016-Feb-07 18:23N 37°24' W 001°09'1011.9
2016-Feb-07 17:33N 37°32' W 001°00'  
2016-Feb-04 02:15N 37°34' W 000°58'3 3.8
2016-Feb-04 01:33N 37°33' W 001°00'21512.6
2016-Feb-03 08:25N 36°01' W 005°04'1314.8
2016-Feb-03 07:34N 36°02' W 005°19'5 4.8
2016-Feb-03 06:29N 36°05' W 005°25'0 0.0
2016-Feb-03 05:29N 36°05' W 005°25'0 0.0
2016-Feb-03 04:31N 36°05' W 005°25'0 0.0
2016-Feb-03 03:33N 36°05' W 005°25'0 0.2
2016-Feb-03 02:33N 36°05' W 005°25'0 0.0
2016-Feb-03 01:32N 36°05' W 005°25'0 0.0
2016-Feb-03 00:28N 36°05' W 005°25'0 0.0
2016-Feb-02 23:32N 36°05' W 005°25'0 0.1
2016-Feb-02 22:32N 36°05' W 005°25'0 0.0
2016-Feb-02 21:32N 36°05' W 005°25'24211.0
2016-Feb-01 23:33N 33°21' W 009°03'15912.0
2016-Feb-01 10:20N 31°17' W 010°60'1112.1
2016-Feb-01 09:25N 31°07' W 011°06'3812.0
2016-Feb-01 06:15N 30°36' W 011°31'2111.8
2016-Feb-01 04:31N 30°19' W 011°44'6011.3
2016-Jan-31 23:11N 29°29' W 012°23'811.1
2016-Jan-31 22:27N 29°22' W 012°28'6410.9
2016-Jan-31 16:31N 28°28' W 013°09'  
Track history (hours):
 
Tides and Currents Weather Stations Pressure Air Temp Water Temp Dewpoint Dewpoint Depression Visibility Wind Speed Wind Dir Waves Ship Positions

Nina

Last reported at 2016-Feb-10 15:31 UTC. Time now 2016-Feb-11 02:23 UTC.
Position N 41°54' W 009°57'.

Length 180 m; draft 9 m.

Type: Ship (hazmat cat A). MMSI: 247239700.

Date/timePositionNaut miles runAvg speedWind from/ knotsBaromVisibWave heightAir tempDewpointWater temp
2016-Feb-10 15:31N 41°54' W 009°57'10 9.9
2016-Feb-10 14:31N 41°44' W 009°56'10 9.4
2016-Feb-10 13:28N 41°34' W 009°57'10 9.7
2016-Feb-10 12:28N 41°24' W 009°56'9 9.1
2016-Feb-10 11:31N 41°16' W 009°56'12 9.4
2016-Feb-10 10:13N 41°03' W 009°56'8 9.0
2016-Feb-10 09:22N 40°56' W 009°56'8 9.5
2016-Feb-10 08:31N 40°48' W 009°57'1010.2
2016-Feb-10 07:31N 40°38' W 009°56'1010.3
2016-Feb-10 06:31N 40°27' W 009°57'1110.1
2016-Feb-10 05:28N 40°17' W 009°57'910.0
2016-Feb-10 04:31N 40°07' W 009°57'1010.0
2016-Feb-10 03:32N 39°57' W 009°56'1211.4
2016-Feb-10 02:31N 39°46' W 009°56'1110.3
2016-Feb-10 01:28N 39°35' W 009°56'9 9.5
2016-Feb-10 00:32N 39°26' W 009°56'1010.2
2016-Feb-09 23:33N 39°16' W 009°57'10 9.8
2016-Feb-09 22:33N 39°06' W 009°56'10 9.7
2016-Feb-09 21:33N 38°57' W 009°56'10 9.8
2016-Feb-09 20:33N 38°47' W 009°57'9 9.3
2016-Feb-09 19:33N 38°38' W 009°55'10 9.7
2016-Feb-09 18:33N 38°28' W 009°52'1010.2
2016-Feb-09 17:33N 38°18' W 009°50'1010.1
2016-Feb-09 16:33N 38°08' W 009°47'1110.3
2016-Feb-09 15:31N 37°58' W 009°44'1010.5
2016-Feb-09 14:33N 37°48' W 009°40'1010.3
2016-Feb-09 13:33N 37°38' W 009°38'1110.6
2016-Feb-09 12:31N 37°27' W 009°34'1010.2
2016-Feb-09 11:31N 37°17' W 009°32'1010.5
2016-Feb-09 10:31N 37°07' W 009°29'1110.3
2016-Feb-09 09:28N 36°57' W 009°26'1010.1
2016-Feb-09 08:31N 36°48' W 009°21'1110.9
2016-Feb-09 07:31N 36°40' W 009°11'1010.4
2016-Feb-09 06:33N 36°37' W 008°59'1212.4
2016-Feb-09 05:34N 36°33' W 008°45'1211.4
2016-Feb-09 04:31N 36°30' W 008°30'1212.1
2016-Feb-09 03:31N 36°26' W 008°16'13611.3
2016-Feb-08 15:33N 35°59' W 005°31'1010.0
2016-Feb-08 14:33N 36°01' W 005°20'21810.8
2016-Feb-07 18:23N 37°24' W 001°09'1011.9
2016-Feb-07 17:33N 37°32' W 001°00'  
2016-Feb-04 02:15N 37°34' W 000°58'3 3.8
2016-Feb-04 01:33N 37°33' W 001°00'21512.6
2016-Feb-03 08:25N 36°01' W 005°04'1314.8
2016-Feb-03 07:34N 36°02' W 005°19'5 4.8
2016-Feb-03 06:29N 36°05' W 005°25'0 0.0
2016-Feb-03 05:29N 36°05' W 005°25'0 0.0
2016-Feb-03 04:31N 36°05' W 005°25'0 0.0
2016-Feb-03 03:33N 36°05' W 005°25'0 0.2
2016-Feb-03 02:33N 36°05' W 005°25'0 0.0
2016-Feb-03 01:32N 36°05' W 005°25'0 0.0
2016-Feb-03 00:28N 36°05' W 005°25'0 0.0
2016-Feb-02 23:32N 36°05' W 005°25'0 0.1
2016-Feb-02 22:32N 36°05' W 005°25'0 0.0
2016-Feb-02 21:32N 36°05' W 005°25'24211.0
2016-Feb-01 23:33N 33°21' W 009°03'15912.0
2016-Feb-01 10:20N 31°17' W 010°60'1112.1
2016-Feb-01 09:25N 31°07' W 011°06'3812.0
2016-Feb-01 06:15N 30°36' W 011°31'2111.8
2016-Feb-01 04:31N 30°19' W 011°44'6011.3
2016-Jan-31 23:11N 29°29' W 012°23'811.1
2016-Jan-31 22:27N 29°22' W 012°28'6410.9
2016-Jan-31 16:31N 28°28' W 013°09'  

Dump ship's entire track history